Texas Enterprise — KSDF — position and weather

sailwx.info

Track history (hours):
 
Tides and Currents Weather Stations Pressure Air Temp Water Temp Dewpoint Dewpoint Depression Visibility Wind Speed Wind Dir Waves Ship Positions

Texas Enterprise

Owner: U.S. United Ocean Services, LLC, Tampa, FL. More information available from US FCC via Universal Licensing System and Coast Guard Vessel Documentation Center.

Last reported at 2015-Apr-19 18:31 UTC. Time now 2015-Apr-19 19:10 UTC.
Position N 27°56' W 082°26'.

Type: Cargo ship. MMSI: 366163000.

Date/timePositionNaut miles runAvg speedWind from/ knotsBaromVisibWave heightAir tempDewpointWater temp
2015-Apr-19 18:31N 27°56' W 082°26'0 0.0
2015-Apr-19 17:31N 27°56' W 082°26'0 0.0
2015-Apr-19 16:31N 27°56' W 082°26'0 0.0
2015-Apr-19 15:31N 27°56' W 082°26'0 0.0
2015-Apr-19 14:31N 27°56' W 082°26'0 0.0
2015-Apr-19 13:31N 27°56' W 082°26'0 0.0
2015-Apr-19 12:31N 27°56' W 082°26'0 0.0
2015-Apr-19 11:31N 27°56' W 082°26'0 0.0
2015-Apr-19 10:31N 27°56' W 082°26'0 0.0
2015-Apr-19 09:31N 27°56' W 082°26'0 0.0
2015-Apr-19 08:31N 27°56' W 082°26'0 0.0
2015-Apr-19 07:31N 27°56' W 082°26'0 0.0
2015-Apr-19 06:34N 27°56' W 082°26'0 0.0
2015-Apr-19 05:31N 27°56' W 082°26'1 1.6
2015-Apr-19 04:33N 27°54' W 082°26'6 5.9
2015-Apr-19 03:33N 27°48' W 082°25'1 0.6
2015-Apr-19 02:31N 27°48' W 082°25'0 0.0
2015-Apr-19 01:28N 27°48' W 082°25'0 0.0
2015-Apr-19 00:31N 27°48' W 082°25'0 0.0
2015-Apr-18 23:31N 27°48' W 082°25'0 0.0
2015-Apr-18 22:31N 27°48' W 082°25'0 0.0
2015-Apr-18 21:31N 27°48' W 082°25'0 0.0
2015-Apr-18 20:31N 27°48' W 082°25'0 0.0
2015-Apr-18 19:31N 27°48' W 082°25'0 0.0
2015-Apr-18 18:31N 27°48' W 082°25'0 0.0
2015-Apr-18 17:31N 27°48' W 082°25'0 0.0
2015-Apr-18 16:31N 27°48' W 082°25'0 0.0
2015-Apr-18 15:31N 27°48' W 082°25'0 0.0
2015-Apr-18 14:31N 27°48' W 082°25'0 0.0
2015-Apr-18 13:31N 27°48' W 082°25'0 0.0
2015-Apr-18 12:31N 27°48' W 082°25'0 0.0
2015-Apr-18 11:31N 27°48' W 082°25'0 0.0
2015-Apr-18 10:31N 27°48' W 082°25'0 0.0
2015-Apr-18 09:31N 27°48' W 082°25'0 0.0
2015-Apr-18 08:31N 27°48' W 082°25'0 0.0
2015-Apr-18 07:31N 27°48' W 082°25'0 0.0
2015-Apr-18 06:31N 27°48' W 082°25'0 0.0
2015-Apr-18 05:28N 27°48' W 082°25'0 0.0
2015-Apr-18 04:31N 27°48' W 082°25'0 0.0
2015-Apr-18 03:31N 27°48' W 082°25'0 0.0
2015-Apr-18 02:31N 27°48' W 082°25'0 0.0
2015-Apr-18 01:31N 27°48' W 082°25'0 0.0
2015-Apr-18 00:28N 27°48' W 082°25'0 0.0
2015-Apr-17 23:31N 27°48' W 082°25'0 0.0
2015-Apr-17 22:31N 27°48' W 082°25'0 0.0
2015-Apr-17 21:31N 27°48' W 082°25'0 0.0
2015-Apr-17 20:31N 27°48' W 082°25'0 0.0
2015-Apr-17 19:31N 27°48' W 082°25'0 0.0
2015-Apr-17 18:31N 27°48' W 082°25'0 0.0
2015-Apr-17 17:31N 27°48' W 082°25'0 0.0
2015-Apr-17 16:31N 27°48' W 082°25'0 0.0
2015-Apr-17 15:31N 27°48' W 082°25'0 0.0
2015-Apr-17 14:31N 27°48' W 082°25'0 0.0
2015-Apr-17 13:31N 27°48' W 082°25'0 0.0
2015-Apr-17 12:31N 27°48' W 082°25'0 0.0
2015-Apr-17 11:31N 27°48' W 082°25'0 0.0
2015-Apr-17 10:31N 27°48' W 082°25'0 0.0
2015-Apr-17 09:31N 27°48' W 082°25'0 0.0
2015-Apr-17 08:31N 27°48' W 082°25'0 0.0
2015-Apr-17 07:31N 27°48' W 082°25'0 0.0
2015-Apr-17 06:31N 27°48' W 082°25'0 0.0
2015-Apr-17 05:31N 27°48' W 082°25'0 0.0
2015-Apr-17 04:31N 27°48' W 082°25'0 0.0
2015-Apr-17 03:31N 27°48' W 082°25'0 0.0
2015-Apr-17 02:28N 27°48' W 082°25'0 0.0
2015-Apr-17 01:31N 27°48' W 082°25'0 0.0
2015-Apr-17 00:31N 27°48' W 082°25'0 0.0
2015-Apr-16 23:31N 27°48' W 082°25'0 0.0
2015-Apr-16 22:31N 27°48' W 082°25'0 0.0
2015-Apr-16 21:31N 27°48' W 082°25'0 0.0
2015-Apr-16 20:31N 27°48' W 082°25'0 0.0
2015-Apr-16 19:31N 27°48' W 082°25'0 0.0
2015-Apr-16 18:31N 27°48' W 082°25'0 0.0
2015-Apr-16 17:31N 27°48' W 082°25'0 0.0
2015-Apr-16 16:31N 27°48' W 082°25'0 0.0
2015-Apr-16 15:31N 27°48' W 082°25'0 0.0
2015-Apr-16 14:31N 27°48' W 082°25'0 0.0
2015-Apr-16 13:31N 27°48' W 082°25'1 1.1
2015-Apr-16 12:33N 27°49' W 082°26'5 5.3
2015-Apr-16 11:33N 27°54' W 082°26'1 0.7
2015-Apr-16 10:33N 27°55' W 082°26'0 0.0
2015-Apr-16 09:33N 27°55' W 082°26'0 0.0
2015-Apr-16 08:33N 27°55' W 082°26'0 0.0
2015-Apr-16 07:33N 27°55' W 082°26'0 0.0
2015-Apr-16 06:33N 27°55' W 082°26'0 0.0
2015-Apr-16 05:33N 27°55' W 082°26'0 0.0
2015-Apr-16 04:33N 27°55' W 082°26'0 0.0
2015-Apr-16 03:33N 27°55' W 082°26'0 0.0
2015-Apr-16 02:33N 27°55' W 082°26'0 0.0
2015-Apr-16 01:33N 27°55' W 082°26'0 0.0
2015-Apr-16 00:30N 27°55' W 082°26'0 0.0
2015-Apr-15 23:33N 27°55' W 082°26'0 0.0
2015-Apr-15 22:33N 27°55' W 082°26'0 0.0
2015-Apr-15 21:33N 27°55' W 082°26'0 0.0
2015-Apr-15 20:33N 27°55' W 082°26'0 0.0
2015-Apr-15 19:33N 27°55' W 082°26'0 0.0
2015-Apr-15 18:33N 27°55' W 082°26'0 0.0
2015-Apr-15 17:33N 27°55' W 082°26'0 0.0
2015-Apr-15 16:33N 27°55' W 082°26'0 0.0
2015-Apr-15 15:33N 27°55' W 082°26'0 0.0
2015-Apr-15 14:33N 27°55' W 082°26'0 0.0
2015-Apr-15 13:33N 27°55' W 082°26'0 0.0
2015-Apr-15 12:33N 27°55' W 082°26'0 0.0
2015-Apr-15 11:33N 27°55' W 082°26'0 0.0
2015-Apr-15 10:33N 27°55' W 082°26'0 0.0
2015-Apr-15 09:33N 27°55' W 082°26'0 0.0
2015-Apr-15 08:33N 27°55' W 082°26'0 0.0
2015-Apr-15 07:33N 27°55' W 082°26'0 0.0
2015-Apr-15 06:33N 27°55' W 082°26'0 0.0
2015-Apr-15 05:26N 27°55' W 082°26'0 0.0
2015-Apr-15 04:33N 27°55' W 082°26'0 0.0
2015-Apr-15 03:32N 27°55' W 082°26'0 0.0
2015-Apr-15 02:33N 27°55' W 082°26'0 0.0
2015-Apr-15 01:33N 27°55' W 082°26'0 0.0
2015-Apr-15 00:32N 27°55' W 082°26'0 0.0
2015-Apr-14 23:32N 27°55' W 082°26'0 0.0
2015-Apr-14 22:33N 27°55' W 082°26'4 3.7
2015-Apr-14 21:33N 27°51' W 082°27'1211.8
2015-Apr-14 20:33N 27°41' W 082°34'6712.2
2015-Apr-14 15:03N 27°44' W 083°50'  
Track history (hours):
 
Tides and Currents Weather Stations Pressure Air Temp Water Temp Dewpoint Dewpoint Depression Visibility Wind Speed Wind Dir Waves Ship Positions

Texas Enterprise

Owner: U.S. United Ocean Services, LLC, Tampa, FL. More information available from US FCC via Universal Licensing System and Coast Guard Vessel Documentation Center.

Last reported at 2015-Apr-19 18:31 UTC. Time now 2015-Apr-19 19:10 UTC.
Position N 27°56' W 082°26'.

Type: Cargo ship. MMSI: 366163000.

Date/timePositionNaut miles runAvg speedWind from/ knotsBaromVisibWave heightAir tempDewpointWater temp
2015-Apr-19 18:31N 27°56' W 082°26'0 0.0
2015-Apr-19 17:31N 27°56' W 082°26'0 0.0
2015-Apr-19 16:31N 27°56' W 082°26'0 0.0
2015-Apr-19 15:31N 27°56' W 082°26'0 0.0
2015-Apr-19 14:31N 27°56' W 082°26'0 0.0
2015-Apr-19 13:31N 27°56' W 082°26'0 0.0
2015-Apr-19 12:31N 27°56' W 082°26'0 0.0
2015-Apr-19 11:31N 27°56' W 082°26'0 0.0
2015-Apr-19 10:31N 27°56' W 082°26'0 0.0
2015-Apr-19 09:31N 27°56' W 082°26'0 0.0
2015-Apr-19 08:31N 27°56' W 082°26'0 0.0
2015-Apr-19 07:31N 27°56' W 082°26'0 0.0
2015-Apr-19 06:34N 27°56' W 082°26'0 0.0
2015-Apr-19 05:31N 27°56' W 082°26'1 1.6
2015-Apr-19 04:33N 27°54' W 082°26'6 5.9
2015-Apr-19 03:33N 27°48' W 082°25'1 0.6
2015-Apr-19 02:31N 27°48' W 082°25'0 0.0
2015-Apr-19 01:28N 27°48' W 082°25'0 0.0
2015-Apr-19 00:31N 27°48' W 082°25'0 0.0
2015-Apr-18 23:31N 27°48' W 082°25'0 0.0
2015-Apr-18 22:31N 27°48' W 082°25'0 0.0
2015-Apr-18 21:31N 27°48' W 082°25'0 0.0
2015-Apr-18 20:31N 27°48' W 082°25'0 0.0
2015-Apr-18 19:31N 27°48' W 082°25'0 0.0
2015-Apr-18 18:31N 27°48' W 082°25'0 0.0
2015-Apr-18 17:31N 27°48' W 082°25'0 0.0
2015-Apr-18 16:31N 27°48' W 082°25'0 0.0
2015-Apr-18 15:31N 27°48' W 082°25'0 0.0
2015-Apr-18 14:31N 27°48' W 082°25'0 0.0
2015-Apr-18 13:31N 27°48' W 082°25'0 0.0
2015-Apr-18 12:31N 27°48' W 082°25'0 0.0
2015-Apr-18 11:31N 27°48' W 082°25'0 0.0
2015-Apr-18 10:31N 27°48' W 082°25'0 0.0
2015-Apr-18 09:31N 27°48' W 082°25'0 0.0
2015-Apr-18 08:31N 27°48' W 082°25'0 0.0
2015-Apr-18 07:31N 27°48' W 082°25'0 0.0
2015-Apr-18 06:31N 27°48' W 082°25'0 0.0
2015-Apr-18 05:28N 27°48' W 082°25'0 0.0
2015-Apr-18 04:31N 27°48' W 082°25'0 0.0
2015-Apr-18 03:31N 27°48' W 082°25'0 0.0
2015-Apr-18 02:31N 27°48' W 082°25'0 0.0
2015-Apr-18 01:31N 27°48' W 082°25'0 0.0
2015-Apr-18 00:28N 27°48' W 082°25'0 0.0
2015-Apr-17 23:31N 27°48' W 082°25'0 0.0
2015-Apr-17 22:31N 27°48' W 082°25'0 0.0
2015-Apr-17 21:31N 27°48' W 082°25'0 0.0
2015-Apr-17 20:31N 27°48' W 082°25'0 0.0
2015-Apr-17 19:31N 27°48' W 082°25'0 0.0
2015-Apr-17 18:31N 27°48' W 082°25'0 0.0
2015-Apr-17 17:31N 27°48' W 082°25'0 0.0
2015-Apr-17 16:31N 27°48' W 082°25'0 0.0
2015-Apr-17 15:31N 27°48' W 082°25'0 0.0
2015-Apr-17 14:31N 27°48' W 082°25'0 0.0
2015-Apr-17 13:31N 27°48' W 082°25'0 0.0
2015-Apr-17 12:31N 27°48' W 082°25'0 0.0
2015-Apr-17 11:31N 27°48' W 082°25'0 0.0
2015-Apr-17 10:31N 27°48' W 082°25'0 0.0
2015-Apr-17 09:31N 27°48' W 082°25'0 0.0
2015-Apr-17 08:31N 27°48' W 082°25'0 0.0
2015-Apr-17 07:31N 27°48' W 082°25'0 0.0
2015-Apr-17 06:31N 27°48' W 082°25'0 0.0
2015-Apr-17 05:31N 27°48' W 082°25'0 0.0
2015-Apr-17 04:31N 27°48' W 082°25'0 0.0
2015-Apr-17 03:31N 27°48' W 082°25'0 0.0
2015-Apr-17 02:28N 27°48' W 082°25'0 0.0
2015-Apr-17 01:31N 27°48' W 082°25'0 0.0
2015-Apr-17 00:31N 27°48' W 082°25'0 0.0
2015-Apr-16 23:31N 27°48' W 082°25'0 0.0
2015-Apr-16 22:31N 27°48' W 082°25'0 0.0
2015-Apr-16 21:31N 27°48' W 082°25'0 0.0
2015-Apr-16 20:31N 27°48' W 082°25'0 0.0
2015-Apr-16 19:31N 27°48' W 082°25'0 0.0
2015-Apr-16 18:31N 27°48' W 082°25'0 0.0
2015-Apr-16 17:31N 27°48' W 082°25'0 0.0
2015-Apr-16 16:31N 27°48' W 082°25'0 0.0
2015-Apr-16 15:31N 27°48' W 082°25'0 0.0
2015-Apr-16 14:31N 27°48' W 082°25'0 0.0
2015-Apr-16 13:31N 27°48' W 082°25'1 1.1
2015-Apr-16 12:33N 27°49' W 082°26'5 5.3
2015-Apr-16 11:33N 27°54' W 082°26'1 0.7
2015-Apr-16 10:33N 27°55' W 082°26'0 0.0
2015-Apr-16 09:33N 27°55' W 082°26'0 0.0
2015-Apr-16 08:33N 27°55' W 082°26'0 0.0
2015-Apr-16 07:33N 27°55' W 082°26'0 0.0
2015-Apr-16 06:33N 27°55' W 082°26'0 0.0
2015-Apr-16 05:33N 27°55' W 082°26'0 0.0
2015-Apr-16 04:33N 27°55' W 082°26'0 0.0
2015-Apr-16 03:33N 27°55' W 082°26'0 0.0
2015-Apr-16 02:33N 27°55' W 082°26'0 0.0
2015-Apr-16 01:33N 27°55' W 082°26'0 0.0
2015-Apr-16 00:30N 27°55' W 082°26'0 0.0
2015-Apr-15 23:33N 27°55' W 082°26'0 0.0
2015-Apr-15 22:33N 27°55' W 082°26'0 0.0
2015-Apr-15 21:33N 27°55' W 082°26'0 0.0
2015-Apr-15 20:33N 27°55' W 082°26'0 0.0
2015-Apr-15 19:33N 27°55' W 082°26'0 0.0
2015-Apr-15 18:33N 27°55' W 082°26'0 0.0
2015-Apr-15 17:33N 27°55' W 082°26'0 0.0
2015-Apr-15 16:33N 27°55' W 082°26'0 0.0
2015-Apr-15 15:33N 27°55' W 082°26'0 0.0
2015-Apr-15 14:33N 27°55' W 082°26'0 0.0
2015-Apr-15 13:33N 27°55' W 082°26'0 0.0
2015-Apr-15 12:33N 27°55' W 082°26'0 0.0
2015-Apr-15 11:33N 27°55' W 082°26'0 0.0
2015-Apr-15 10:33N 27°55' W 082°26'0 0.0
2015-Apr-15 09:33N 27°55' W 082°26'0 0.0
2015-Apr-15 08:33N 27°55' W 082°26'0 0.0
2015-Apr-15 07:33N 27°55' W 082°26'0 0.0
2015-Apr-15 06:33N 27°55' W 082°26'0 0.0
2015-Apr-15 05:26N 27°55' W 082°26'0 0.0
2015-Apr-15 04:33N 27°55' W 082°26'0 0.0
2015-Apr-15 03:32N 27°55' W 082°26'0 0.0
2015-Apr-15 02:33N 27°55' W 082°26'0 0.0
2015-Apr-15 01:33N 27°55' W 082°26'0 0.0
2015-Apr-15 00:32N 27°55' W 082°26'0 0.0
2015-Apr-14 23:32N 27°55' W 082°26'0 0.0
2015-Apr-14 22:33N 27°55' W 082°26'4 3.7
2015-Apr-14 21:33N 27°51' W 082°27'1211.8
2015-Apr-14 20:33N 27°41' W 082°34'6712.2
2015-Apr-14 15:03N 27°44' W 083°50'  

Dump ship's entire track history